Time;durP1;ratioP1;P1;durP2;ratioP2;P2;SDS_P1;SDS_P2;PMS_P1;PMS_P2;Temp;Humidity;BMP_temperature;BMP_pressure;BME280_temperature;BME280_humidity;BME280_pressure;Samples;Min_cycle;Max_cycle;Signal;HPM_P1;HPM_P2
2023/03/25 00:01:24;;;;;;;2.30;0.90;;;12.40;99.90;;;;;;5072618;28;20403;-70
2023/03/25 00:03:53;;;;;;;3.57;1.27;;;12.40;99.90;;;;;;5072637;28;20452;-70
2023/03/25 00:06:19;;;;;;;2.80;1.10;;;12.40;99.90;;;;;;5055779;28;20460;-70
2023/03/25 00:08:47;;;;;;;2.90;1.10;;;12.40;99.90;;;;;;5073554;28;20456;-70
2023/03/25 00:11:13;;;;;;;2.40;1.03;;;12.40;99.90;;;;;;5072380;28;20409;-70
2023/03/25 00:13:40;;;;;;;2.70;1.00;;;12.40;99.90;;;;;;5055880;28;20437;-70
2023/03/25 00:16:09;;;;;;;1.93;1.00;;;12.40;99.90;;;;;;5072305;28;20578;-70
2023/03/25 00:18:36;;;;;;;2.40;1.00;;;12.40;99.90;;;;;;5055623;28;20832;-70
2023/03/25 00:21:04;;;;;;;1.77;0.90;;;12.40;99.90;;;;;;5055890;28;20448;-70
2023/03/25 00:23:33;;;;;;;1.90;1.20;;;12.40;99.90;;;;;;5072993;28;20445;-70
2023/03/25 00:25:59;;;;;;;2.70;1.00;;;12.40;99.90;;;;;;5073225;28;20856;-70
2023/03/25 00:28:31;;;;;;;2.83;1.40;;;12.40;99.90;;;;;;5071872;28;20405;-70
2023/03/25 00:31:04;;;;;;;1.83;1.30;;;12.40;99.90;;;;;;5038905;28;20445;-70
2023/03/25 00:33:31;;;;;;;1.50;1.10;;;12.40;99.90;;;;;;5055584;28;20823;-70
2023/03/25 00:35:58;;;;;;;4.10;1.27;;;12.40;99.90;;;;;;5055142;28;20415;-70
2023/03/25 00:38:32;;;;;;;3.67;1.67;;;12.40;99.90;;;;;;5055550;28;20511;-70
2023/03/25 00:41:24;;;;;;;2.30;1.10;;;12.40;99.90;;;;;;5073001;28;20448;-70
2023/03/25 00:43:52;;;;;;;3.03;1.07;;;12.40;99.90;;;;;;5072067;28;20444;-70
2023/03/25 00:46:19;;;;;;;2.40;1.30;;;12.40;99.90;;;;;;5071846;28;20442;-70
2023/03/25 00:48:51;;;;;;;4.20;1.10;;;12.40;99.90;;;;;;5072201;28;20887;-70
2023/03/25 00:51:20;;;;;;;2.57;1.20;;;12.40;99.90;;;;;;5055271;28;20434;-70
2023/03/25 00:53:54;;;;;;;3.60;1.20;;;12.30;99.90;;;;;;5072000;28;20425;-70
2023/03/25 00:56:22;;;;;;;3.93;1.20;;;12.30;99.90;;;;;;5071800;28;20397;-70
2023/03/25 00:58:50;;;;;;;1.20;1.10;;;12.30;99.90;;;;;;5071879;28;20456;-70
2023/03/25 01:01:22;;;;;;;2.60;1.10;;;12.30;99.90;;;;;;5038858;28;20434;-70
2023/03/25 01:04:02;;;;;;;3.23;1.27;;;12.30;99.90;;;;;;5055328;28;20431;-70
2023/03/25 01:06:33;;;;;;;1.53;1.00;;;12.30;99.90;;;;;;5072884;28;20455;-70
2023/03/25 01:09:05;;;;;;;1.97;0.90;;;12.30;99.90;;;;;;5071929;28;20847;-70
2023/03/25 01:11:33;;;;;;;3.00;1.20;;;12.30;99.90;;;;;;5071644;28;20399;-70
2023/03/25 01:14:04;;;;;;;5.13;1.10;;;12.30;99.90;;;;;;5055027;28;20392;-70
2023/03/25 01:16:33;;;;;;;5.67;1.30;;;12.30;99.90;;;;;;5071697;28;20414;-70
2023/03/25 01:19:01;;;;;;;3.37;1.20;;;12.20;99.90;;;;;;5071615;28;20404;-70
2023/03/25 01:21:32;;;;;;;3.60;1.20;;;12.20;99.90;;;;;;5071619;28;20437;-70
2023/03/25 01:23:58;;;;;;;4.30;1.13;;;12.20;99.90;;;;;;5054732;28;20438;-70
2023/03/25 01:26:27;;;;;;;4.23;1.07;;;12.20;99.90;;;;;;5071521;28;20469;-70
2023/03/25 01:28:53;;;;;;;2.87;1.40;;;12.20;99.90;;;;;;5071429;28;20817;-70
2023/03/25 01:31:29;;;;;;;2.50;1.10;;;12.30;99.90;;;;;;5071686;28;20438;-70
2023/03/25 01:33:56;;;;;;;5.87;1.40;;;12.20;99.90;;;;;;5071714;28;20416;-70
2023/03/25 01:36:23;;;;;;;2.10;1.13;;;12.20;99.90;;;;;;5071483;28;20522;-70
2023/03/25 01:38:52;;;;;;;4.90;1.57;;;12.20;99.90;;;;;;5054742;28;20490;-70
2023/03/25 01:41:23;;;;;;;2.90;1.50;;;12.20;99.90;;;;;;5071495;28;20395;-70
2023/03/25 01:44:06;;;;;;;3.30;1.20;;;12.20;99.90;;;;;;5071497;28;20405;-70
2023/03/25 01:46:36;;;;;;;6.13;1.50;;;12.10;99.90;;;;;;5071386;28;20787;-70
2023/03/25 01:49:10;;;;;;;5.80;1.50;;;12.10;99.90;;;;;;5073480;28;20450;-70
2023/03/25 01:51:41;;;;;;;3.73;1.10;;;12.10;99.90;;;;;;5042237;28;20444;-70
2023/03/25 01:54:08;;;;;;;2.33;0.90;;;12.10;99.90;;;;;;5075228;28;20447;-70
2023/03/25 01:56:41;;;;;;;4.93;1.20;;;12.10;99.90;;;;;;5076095;28;20402;-70
2023/03/25 01:59:10;;;;;;;5.37;1.30;;;12.10;99.90;;;;;;5074889;28;20465;-70
2023/03/25 02:01:36;;;;;;;2.30;1.30;;;12.10;99.90;;;;;;5075949;28;20414;-70
2023/03/25 02:04:11;;;;;;;2.10;1.07;;;12.10;99.90;;;;;;5041772;28;20433;-70
2023/03/25 02:06:54;;;;;;;3.00;1.10;;;12.10;99.90;;;;;;5041513;28;21027;-69
2023/03/25 02:09:23;;;;;;;3.03;1.17;;;12.10;99.90;;;;;;5074653;28;20777;-70
2023/03/25 02:11:53;;;;;;;2.97;1.40;;;12.10;99.90;;;;;;5074665;28;20394;-70
2023/03/25 02:14:26;;;;;;;3.00;1.00;;;12.00;99.90;;;;;;5058588;28;20507;-70
2023/03/25 02:17:08;;;;;;;3.60;1.10;;;12.00;99.90;;;;;;5058122;28;20796;-70
2023/03/25 02:19:39;;;;;;;2.87;1.20;;;12.00;99.90;;;;;;5074701;28;20456;-70
2023/03/25 02:22:36;;;;;;;3.17;1.40;;;12.00;99.90;;;;;;5058014;28;20425;-70
2023/03/25 02:25:17;;;;;;;2.90;1.03;;;12.00;99.90;;;;;;5074527;28;20481;-70
2023/03/25 02:28:10;;;;;;;2.20;1.00;;;12.00;99.90;;;;;;5034632;28;20458;-70
2023/03/25 02:31:02;;;;;;;1.30;1.00;;;12.00;99.90;;;;;;5017785;28;20525;-70
2023/03/25 02:33:50;;;;;;;5.60;1.50;;;12.00;99.90;;;;;;5017965;28;20484;-70
2023/03/25 02:36:47;;;;;;;2.73;1.10;;;12.00;99.90;;;;;;5034466;28;20529;-70
2023/03/25 02:39:30;;;;;;;3.47;1.20;;;12.00;99.90;;;;;;5034175;28;20964;-70
2023/03/25 02:42:14;;;;;;;1.40;0.90;;;11.90;99.90;;;;;;5017857;28;20991;-70
2023/03/25 02:45:21;;;;;;;7.53;1.67;;;11.90;99.90;;;;;;5034080;28;20481;-70
2023/03/25 02:47:53;;;;;;;2.07;1.23;;;11.90;99.90;;;;;;5017050;28;20434;-70
2023/03/25 02:50:39;;;;;;;2.77;1.10;;;11.90;99.90;;;;;;5017254;28;20437;-70
2023/03/25 02:53:17;;;;;;;2.60;1.03;;;11.90;99.90;;;;;;5017069;28;20434;-70
2023/03/25 02:55:46;;;;;;;3.47;1.20;;;11.90;99.90;;;;;;5016520;28;20414;-70
2023/03/25 02:58:15;;;;;;;1.20;0.83;;;11.90;99.90;;;;;;5016469;28;20436;-70
2023/03/25 03:00:44;;;;;;;2.17;0.90;;;11.90;99.90;;;;;;5016641;28;20455;-70
2023/03/25 03:03:10;;;;;;;3.70;1.00;;;11.90;99.90;;;;;;5016269;28;20458;-70
2023/03/25 03:05:44;;;;;;;3.03;0.90;;;11.90;99.90;;;;;;5032653;28;20505;-70
2023/03/25 03:08:42;;;;;;;4.30;1.80;;;11.90;99.90;;;;;;5016182;28;20396;-70
2023/03/25 03:11:49;;;;;;;2.90;1.23;;;11.90;99.90;;;;;;5033157;28;20472;-70
2023/03/25 03:14:36;;;;;;;2.10;1.20;;;11.90;99.90;;;;;;4999965;28;20432;-69
2023/03/25 03:17:27;;;;;;;2.10;1.23;;;11.90;99.90;;;;;;5017037;28;20421;-70
2023/03/25 03:20:04;;;;;;;2.47;0.90;;;11.80;99.90;;;;;;5033488;28;20419;-70
2023/03/25 03:22:41;;;;;;;3.40;1.03;;;11.80;99.90;;;;;;5000844;28;20521;-70
2023/03/25 03:25:30;;;;;;;2.30;1.03;;;11.80;99.90;;;;;;5033537;28;20430;-70
2023/03/25 03:28:09;;;;;;;1.80;1.10;;;11.80;99.90;;;;;;5033142;28;20786;-70
2023/03/25 03:31:00;;;;;;;1.80;0.90;;;11.80;99.90;;;;;;5034432;28;20438;-70
2023/03/25 03:33:35;;;;;;;3.80;1.47;;;11.80;99.90;;;;;;5033416;28;20430;-70
2023/03/25 03:36:15;;;;;;;2.40;1.50;;;11.80;99.90;;;;;;5034404;28;20508;-70
2023/03/25 03:38:48;;;;;;;2.70;1.10;;;11.80;99.90;;;;;;5033339;28;20954;-70
2023/03/25 03:41:22;;;;;;;4.47;1.27;;;11.80;99.90;;;;;;5033263;28;20416;-70
2023/03/25 03:44:02;;;;;;;3.37;1.33;;;11.80;99.90;;;;;;5033066;28;20475;-70
2023/03/25 03:46:44;;;;;;;2.20;1.00;;;11.80;99.90;;;;;;5032747;28;20936;-70
2023/03/25 03:49:19;;;;;;;2.60;1.40;;;11.80;99.90;;;;;;5032989;28;20452;-70
2023/03/25 03:51:55;;;;;;;2.33;1.40;;;11.80;99.90;;;;;;5033920;28;20440;-70
2023/03/25 03:54:32;;;;;;;3.90;1.30;;;11.80;99.90;;;;;;5032946;28;20483;-70
2023/03/25 03:57:19;;;;;;;3.00;1.10;;;11.80;99.90;;;;;;5032450;28;20522;-70
2023/03/25 04:00:08;;;;;;;3.80;1.27;;;11.80;99.90;;;;;;5032790;28;20861;-70
2023/03/25 04:02:49;;;;;;;2.57;1.40;;;11.80;99.90;;;;;;5033899;28;20486;-70
2023/03/25 04:05:18;;;;;;;3.77;1.20;;;11.80;99.90;;;;;;5016317;28;20546;-70
2023/03/25 04:07:59;;;;;;;2.03;1.00;;;11.70;99.90;;;;;;5016409;28;20929;-70
2023/03/25 04:10:40;;;;;;;6.03;1.50;;;11.70;99.90;;;;;;5032337;28;20978;-70
2023/03/25 04:13:13;;;;;;;2.60;1.40;;;11.70;99.90;;;;;;5032646;28;20416;-70
2023/03/25 04:15:40;;;;;;;1.83;1.10;;;11.70;99.90;;;;;;5032508;28;20440;-70
2023/03/25 04:18:09;;;;;;;3.03;1.57;;;11.70;99.90;;;;;;5033657;28;20405;-70
2023/03/25 04:20:35;;;;;;;10.43;2.57;;;11.70;99.90;;;;;;5016143;28;20990;-70
2023/03/25 04:23:08;;;;;;;5.13;1.30;;;11.70;99.90;;;;;;5033452;28;20406;-70
2023/03/25 04:25:34;;;;;;;3.77;1.30;;;11.70;99.90;;;;;;5032201;28;20449;-70
2023/03/25 04:28:03;;;;;;;6.47;1.73;;;11.70;99.90;;;;;;5032445;28;20926;-70
2023/03/25 04:30:29;;;;;;;4.47;1.50;;;11.70;99.90;;;;;;5032384;28;20983;-70
2023/03/25 04:32:55;;;;;;;6.50;1.57;;;11.70;99.90;;;;;;5032274;28;20447;-70
2023/03/25 04:35:26;;;;;;;3.60;1.50;;;11.70;99.90;;;;;;5032171;28;20401;-71
2023/03/25 04:37:53;;;;;;;7.90;1.57;;;11.70;99.90;;;;;;5033265;28;20411;-69
2023/03/25 04:40:19;;;;;;;3.43;1.20;;;11.70;99.90;;;;;;5033147;28;20523;-70
2023/03/25 04:42:48;;;;;;;3.70;1.30;;;11.70;99.90;;;;;;5031887;28;20418;-70
2023/03/25 04:45:18;;;;;;;2.23;1.10;;;11.70;99.90;;;;;;5031769;28;20436;-70
2023/03/25 04:47:48;;;;;;;4.63;1.20;;;11.70;99.90;;;;;;5032027;28;20422;-70
2023/03/25 04:50:22;;;;;;;3.17;1.30;;;11.70;99.90;;;;;;5031954;28;20477;-70
2023/03/25 04:52:59;;;;;;;2.50;1.87;;;11.70;99.90;;;;;;5033638;28;20411;-70
2023/03/25 04:55:25;;;;;;;4.40;1.40;;;11.70;99.90;;;;;;5033099;28;20446;-70
2023/03/25 04:57:56;;;;;;;1.30;0.87;;;11.60;99.90;;;;;;4999496;28;20434;-70
2023/03/25 05:00:26;;;;;;;3.97;1.50;;;11.60;99.90;;;;;;5031955;28;20445;-70
2023/03/25 05:02:54;;;;;;;3.50;1.43;;;11.60;99.90;;;;;;5015628;28;20439;-70
2023/03/25 05:05:24;;;;;;;5.63;1.53;;;11.60;99.90;;;;;;5033087;28;20972;-70
2023/03/25 05:07:52;;;;;;;3.83;1.83;;;11.60;99.90;;;;;;5015419;28;20409;-69
2023/03/25 05:10:21;;;;;;;2.87;1.50;;;11.60;99.90;;;;;;5031883;28;20437;-69
2023/03/25 05:12:47;;;;;;;3.60;1.30;;;11.60;99.90;;;;;;5033062;28;20488;-69
2023/03/25 05:15:16;;;;;;;4.50;2.20;;;11.60;99.90;;;;;;5031715;28;20393;-69
2023/03/25 05:17:44;;;;;;;9.17;1.87;;;11.60;99.90;;;;;;5033005;28;20409;-69
2023/03/25 05:20:12;;;;;;;4.40;1.50;;;11.60;99.90;;;;;;5031841;28;20437;-69
2023/03/25 05:22:40;;;;;;;5.97;1.80;;;11.60;99.90;;;;;;5034411;28;20394;-69
2023/03/25 05:25:11;;;;;;;3.10;1.30;;;11.60;99.90;;;;;;5019120;28;20444;-69
2023/03/25 05:27:38;;;;;;;8.10;1.63;;;11.60;99.90;;;;;;5035694;28;20460;-69
2023/03/25 05:30:06;;;;;;;2.50;1.10;;;11.60;99.90;;;;;;5036612;28;20803;-69
2023/03/25 05:32:34;;;;;;;9.50;1.43;;;11.50;99.90;;;;;;5036702;28;20399;-69
2023/03/25 05:35:03;;;;;;;4.50;1.70;;;11.50;99.90;;;;;;5019458;28;20426;-69
2023/03/25 05:37:29;;;;;;;5.03;1.87;;;11.50;99.90;;;;;;5035353;28;20433;-69
2023/03/25 05:39:55;;;;;;;4.10;1.47;;;11.50;99.90;;;;;;5002660;28;20467;-69
2023/03/25 05:42:24;;;;;;;2.33;1.40;;;11.50;99.90;;;;;;5035025;28;20436;-69
2023/03/25 05:44:53;;;;;;;4.80;1.43;;;11.50;99.90;;;;;;5018694;28;20439;-69
2023/03/25 05:47:22;;;;;;;4.50;1.40;;;11.50;99.90;;;;;;5035152;28;20474;-69
2023/03/25 05:49:53;;;;;;;5.50;1.70;;;11.50;99.90;;;;;;5018896;28;20435;-69
2023/03/25 05:52:23;;;;;;;5.57;1.90;;;11.50;99.90;;;;;;5035254;28;20394;-69
2023/03/25 05:54:50;;;;;;;4.03;1.50;;;11.50;99.90;;;;;;5035105;28;20420;-69
2023/03/25 05:57:16;;;;;;;3.10;1.40;;;11.50;99.90;;;;;;5036233;28;20425;-69
2023/03/25 05:59:44;;;;;;;6.63;1.43;;;11.50;99.90;;;;;;5018546;28;20456;-69
2023/03/25 06:02:15;;;;;;;4.00;1.33;;;11.50;99.90;;;;;;5035219;28;20507;-69
2023/03/25 06:04:46;;;;;;;5.73;1.10;;;11.50;99.90;;;;;;5034911;28;20437;-70
2023/03/25 06:07:18;;;;;;;6.33;1.57;;;11.50;99.90;;;;;;5035958;28;20461;-70
2023/03/25 06:09:53;;;;;;;7.27;1.57;;;11.50;99.90;;;;;;5034761;28;20428;-69
2023/03/25 06:12:21;;;;;;;6.03;1.67;;;11.50;99.90;;;;;;5033919;28;20402;-69
2023/03/25 06:14:52;;;;;;;5.00;1.40;;;11.50;99.90;;;;;;5034861;28;20414;-69
2023/03/25 06:17:21;;;;;;;4.70;1.40;;;11.50;99.90;;;;;;5034597;28;20531;-69
2023/03/25 06:19:49;;;;;;;3.13;1.40;;;11.50;99.90;;;;;;5034483;28;20446;-69
2023/03/25 06:22:15;;;;;;;5.63;1.87;;;11.40;99.90;;;;;;5035458;28;20435;-69
2023/03/25 06:24:44;;;;;;;3.53;1.33;;;11.40;99.90;;;;;;5035656;28;20403;-69
2023/03/25 06:27:16;;;;;;;3.90;1.83;;;11.40;99.90;;;;;;5035617;28;21007;-69
2023/03/25 06:29:43;;;;;;;7.20;2.03;;;11.40;99.90;;;;;;5054526;28;20440;-69
2023/03/25 06:32:13;;;;;;;4.47;1.90;;;11.40;99.90;;;;;;5073033;28;20421;-69
2023/03/25 06:34:41;;;;;;;8.10;1.67;;;11.40;99.90;;;;;;5073747;28;20404;-69
2023/03/25 06:37:08;;;;;;;6.13;1.80;;;11.40;99.90;;;;;;5075505;28;20446;-69
2023/03/25 06:39:38;;;;;;;7.23;1.60;;;11.40;99.90;;;;;;5075494;28;20869;-69
2023/03/25 06:42:15;;;;;;;4.77;1.70;;;11.40;99.90;;;;;;5057599;28;20537;-69
2023/03/25 06:45:12;;;;;;;6.17;1.73;;;11.40;99.90;;;;;;5074809;28;20815;-69
2023/03/25 06:47:47;;;;;;;3.10;1.30;;;11.40;99.90;;;;;;5073980;28;20419;-70
2023/03/25 06:50:15;;;;;;;6.20;1.90;;;11.40;99.90;;;;;;5075125;28;20424;-69
2023/03/25 06:52:41;;;;;;;7.27;1.83;;;11.40;99.90;;;;;;5074081;28;20407;-69
2023/03/25 06:55:09;;;;;;;7.90;1.73;;;11.40;99.90;;;;;;5057274;28;20431;-69
2023/03/25 06:57:40;;;;;;;4.20;2.00;;;11.40;99.90;;;;;;5075207;28;20171;-69
2023/03/25 07:00:07;;;;;;;6.63;1.83;;;11.40;99.90;;;;;;5075000;28;20449;-69
2023/03/25 07:02:33;;;;;;;3.90;1.47;;;11.40;99.90;;;;;;5073401;28;20440;-69
2023/03/25 07:04:59;;;;;;;7.67;1.87;;;11.40;99.90;;;;;;5057050;28;20419;-69
2023/03/25 07:07:25;;;;;;;4.30;1.87;;;11.30;99.90;;;;;;5040639;28;20912;-69
2023/03/25 07:09:54;;;;;;;5.90;1.77;;;11.40;99.90;;;;;;5073363;28;20464;-69
2023/03/25 07:12:21;;;;;;;4.57;1.90;;;11.40;99.90;;;;;;5040341;28;20405;-69
2023/03/25 07:14:59;;;;;;;8.50;1.70;;;11.40;99.90;;;;;;5074000;28;20821;-69
2023/03/25 07:17:27;;;;;;;5.60;2.10;;;11.40;99.90;;;;;;5060952;28;20421;-69
2023/03/25 07:19:56;;;;;;;5.10;1.67;;;11.40;99.90;;;;;;5054760;28;20445;-69
2023/03/25 07:22:22;;;;;;;2.60;1.20;;;11.40;99.90;;;;;;5053352;28;20429;-69
2023/03/25 07:24:50;;;;;;;3.03;1.43;;;11.40;99.90;;;;;;5053413;28;20402;-69
2023/03/25 07:27:16;;;;;;;4.67;1.83;;;11.40;99.90;;;;;;5036665;28;20492;-69
2023/03/25 07:29:49;;;;;;;5.80;1.60;;;11.40;99.90;;;;;;5022698;23;20534;-72
2023/03/25 07:32:15;;;;;;;5.80;2.00;;;11.40;99.90;;;;;;4991480;28;20440;-73
2023/03/25 07:34:41;;;;;;;5.70;1.83;;;11.40;99.90;;;;;;4992927;28;20416;-73
2023/03/25 07:37:07;;;;;;;7.67;1.83;;;11.40;99.90;;;;;;4992076;28;20468;-72
2023/03/25 07:39:36;;;;;;;4.07;1.60;;;11.30;99.90;;;;;;4993620;28;20437;-73
2023/03/25 07:42:02;;;;;;;7.37;2.00;;;11.30;99.90;;;;;;4993135;28;20528;-73
2023/03/25 07:44:42;;;;;;;4.17;1.80;;;11.30;99.90;;;;;;4971882;28;20434;-72
2023/03/25 07:47:15;;;;;;;8.10;1.67;;;11.40;99.90;;;;;;5003203;28;20895;-72
2023/03/25 07:49:45;;;;;;;12.43;2.27;;;11.40;99.90;;;;;;4988889;28;20792;-72
2023/03/25 07:52:14;;;;;;;9.23;1.80;;;11.30;99.90;;;;;;4977027;28;20907;-72
2023/03/25 07:54:40;;;;;;;5.00;2.07;;;11.30;99.90;;;;;;4973688;28;20491;-72
2023/03/25 07:57:06;;;;;;;5.33;1.93;;;11.30;99.90;;;;;;4978573;28;20463;-73
2023/03/25 07:59:35;;;;;;;3.50;1.43;;;11.30;99.90;;;;;;4972972;28;20535;-72
2023/03/25 08:02:03;;;;;;;6.40;1.90;;;11.30;99.90;;;;;;4974022;28;20457;-72
2023/03/25 08:04:30;;;;;;;2.93;1.53;;;11.30;99.90;;;;;;4988741;28;20444;-72
2023/03/25 08:07:01;;;;;;;8.10;2.50;;;11.30;99.90;;;;;;4972946;28;20843;-72
2023/03/25 08:09:27;;;;;;;7.80;2.00;;;11.30;99.90;;;;;;4993026;28;20441;-72
2023/03/25 08:11:53;;;;;;;5.87;1.87;;;11.30;99.90;;;;;;4991707;28;20451;-73
2023/03/25 08:14:24;;;;;;;5.10;2.00;;;11.30;99.90;;;;;;4987954;28;20970;-73
2023/03/25 08:16:53;;;;;;;6.43;2.60;;;11.30;99.90;;;;;;4973516;28;20492;-73
2023/03/25 08:19:19;;;;;;;8.10;2.30;;;11.30;99.90;;;;;;4972174;28;20525;-72
2023/03/25 08:21:45;;;;;;;9.03;1.70;;;11.30;99.90;;;;;;4988690;28;20435;-72
2023/03/25 08:24:16;;;;;;;11.73;2.13;;;11.30;99.90;;;;;;4991324;28;20489;-73
2023/03/25 08:26:49;;;;;;;4.37;2.47;;;11.30;99.90;;;;;;4991558;28;20986;-73
2023/03/25 08:29:19;;;;;;;5.53;2.03;;;11.30;99.90;;;;;;4956790;28;20975;-73
2023/03/25 08:31:51;;;;;;;3.50;2.07;;;11.30;99.90;;;;;;4973156;28;20682;-72
2023/03/25 08:34:20;;;;;;;6.33;1.90;;;11.30;99.90;;;;;;4974550;28;20455;-72
2023/03/25 08:36:50;;;;;;;6.53;1.90;;;11.30;99.90;;;;;;5007002;28;20803;-73
2023/03/25 08:39:17;;;;;;;8.47;2.40;;;11.30;99.90;;;;;;4991246;28;20453;-72
2023/03/25 08:41:47;;;;;;;7.57;1.93;;;11.30;99.90;;;;;;5007210;28;20398;-73
2023/03/25 08:44:16;;;;;;;6.00;2.10;;;11.30;99.90;;;;;;4971653;28;20440;-72
2023/03/25 08:46:44;;;;;;;9.27;2.50;;;11.30;99.90;;;;;;4991416;28;21014;-72
2023/03/25 08:49:12;;;;;;;5.87;1.90;;;11.30;99.90;;;;;;4992582;28;20453;-72
2023/03/25 08:51:42;;;;;;;4.73;1.97;;;11.30;99.90;;;;;;4991140;28;20430;-73
2023/03/25 08:54:13;;;;;;;8.50;2.20;;;11.30;99.90;;;;;;4971240;28;20476;-72
2023/03/25 08:56:39;;;;;;;5.20;2.37;;;11.30;99.90;;;;;;4999629;28;20442;-73
2023/03/25 08:59:11;;;;;;;7.43;2.80;;;11.30;99.90;;;;;;4991127;28;20462;-73
2023/03/25 09:01:38;;;;;;;10.20;2.60;;;11.30;99.90;;;;;;4991120;28;20464;-73
2023/03/25 09:04:04;;;;;;;3.83;2.07;;;11.30;99.90;;;;;;4991331;28;20492;-73
2023/03/25 09:06:35;;;;;;;6.77;2.63;;;11.30;99.90;;;;;;4986921;28;20476;-72
2023/03/25 09:09:04;;;;;;;8.53;1.90;;;11.30;99.90;;;;;;5004057;28;20459;-73
2023/03/25 09:11:31;;;;;;;8.57;1.97;;;11.30;99.90;;;;;;4973291;28;20915;-72
2023/03/25 09:13:57;;;;;;;3.30;1.80;;;11.40;99.90;;;;;;4992348;28;20406;-72
2023/03/25 09:16:28;;;;;;;4.93;2.20;;;11.40;99.90;;;;;;5006216;28;20805;-73
2023/03/25 09:19:00;;;;;;;7.33;2.40;;;11.40;99.90;;;;;;5011976;28;20722;-73
2023/03/25 09:21:29;;;;;;;5.37;2.10;;;11.40;99.90;;;;;;4994078;28;20484;-73
2023/03/25 09:23:55;;;;;;;6.33;3.70;;;11.40;99.90;;;;;;5016277;28;21046;-72
2023/03/25 09:26:21;;;;;;;6.37;2.23;;;11.40;99.90;;;;;;4990916;28;20856;-72
2023/03/25 09:28:49;;;;;;;6.70;2.50;;;11.40;99.90;;;;;;5006323;28;20431;-73
2023/03/25 09:31:15;;;;;;;11.50;2.73;;;11.40;99.90;;;;;;4974886;28;20462;-72
2023/03/25 09:33:49;;;;;;;8.10;2.47;;;11.40;99.90;;;;;;4990632;28;20947;-73
2023/03/25 09:36:20;;;;;;;8.80;2.20;;;11.40;99.90;;;;;;4974940;28;20424;-72
2023/03/25 09:38:48;;;;;;;8.20;2.57;;;11.40;99.90;;;;;;4991069;28;20420;-73
2023/03/25 09:41:57;;;;;;;7.27;2.70;;;11.40;99.90;;;;;;4990715;28;20429;-73
2023/03/25 09:44:55;;;;;;;6.17;1.70;;;11.40;99.90;;;;;;4974247;28;20432;-72
2023/03/25 09:47:26;;;;;;;9.47;2.57;;;11.40;99.90;;;;;;4990889;28;20460;-73
2023/03/25 09:49:58;;;;;;;4.87;2.07;;;11.40;99.90;;;;;;4991827;28;20985;-73
2023/03/25 09:52:37;;;;;;;8.73;2.70;;;11.40;99.90;;;;;;4990833;28;20778;-73
2023/03/25 09:55:14;;;;;;;10.20;2.23;;;11.40;99.90;;;;;;4990522;28;20492;-72
2023/03/25 09:57:49;;;;;;;10.17;2.80;;;11.40;99.90;;;;;;4991050;28;20413;-73
2023/03/25 10:00:22;;;;;;;5.57;2.30;;;11.40;99.90;;;;;;4971408;28;20991;-73
2023/03/25 10:03:27;;;;;;;7.70;2.13;;;11.40;99.90;;;;;;4987344;28;20405;-73
2023/03/25 10:06:05;;;;;;;7.50;2.60;;;11.40;99.90;;;;;;4972131;28;20506;-73
2023/03/25 10:08:43;;;;;;;8.37;2.40;;;11.40;99.90;;;;;;4955530;28;20415;-73
2023/03/25 10:11:26;;;;;;;7.10;2.20;;;11.40;99.90;;;;;;4972879;28;20466;-73
2023/03/25 10:13:52;;;;;;;7.83;2.40;;;11.40;99.90;;;;;;5010592;28;20403;-72
2023/03/25 10:16:43;;;;;;;6.30;2.27;;;11.50;99.90;;;;;;4995465;28;20939;-72
2023/03/25 10:19:22;;;;;;;9.20;2.50;;;11.50;99.90;;;;;;4994821;28;20834;-72
2023/03/25 10:22:04;;;;;;;7.47;2.30;;;11.50;99.90;;;;;;4995322;28;20421;-73
2023/03/25 10:24:38;;;;;;;10.60;2.20;;;11.50;99.90;;;;;;5010008;28;20966;-73
2023/03/25 10:27:28;;;;;;;5.83;2.60;;;11.50;99.90;;;;;;4994849;28;20479;-72
2023/03/25 10:30:03;;;;;;;5.53;1.87;;;11.50;99.90;;;;;;4993915;28;20592;-73
2023/03/25 10:33:15;;;;;;;11.13;2.10;;;11.50;99.90;;;;;;5009798;28;20417;-72
2023/03/25 10:35:47;;;;;;;6.33;2.90;;;11.50;99.90;;;;;;4957200;28;20833;-73
2023/03/25 10:38:17;;;;;;;5.80;2.13;;;11.60;99.90;;;;;;4973194;28;20784;-72
2023/03/25 10:40:48;;;;;;;8.47;2.30;;;11.60;99.90;;;;;;4955936;28;20479;-72
2023/03/25 10:43:20;;;;;;;9.07;2.70;;;11.60;99.90;;;;;;4972488;28;20506;-72
2023/03/25 10:45:48;;;;;;;6.87;2.20;;;11.60;99.90;;;;;;4972878;28;20866;-73
2023/03/25 10:48:14;;;;;;;8.03;1.97;;;11.60;99.90;;;;;;4972473;28;20424;-73
2023/03/25 10:50:41;;;;;;;5.70;2.13;;;11.60;99.90;;;;;;4972720;28;20436;-73
2023/03/25 10:53:23;;;;;;;6.90;1.93;;;11.60;99.90;;;;;;4972363;28;20559;-73
2023/03/25 10:56:12;;;;;;;13.57;2.70;;;11.60;99.90;;;;;;4954355;28;20541;-72
2023/03/25 10:58:40;;;;;;;8.77;2.40;;;11.60;99.90;;;;;;4973048;28;21029;-74
2023/03/25 11:01:19;;;;;;;8.03;2.60;;;11.60;99.90;;;;;;4956418;28;20472;-74
2023/03/25 11:03:52;;;;;;;5.90;2.27;;;11.60;99.90;;;;;;4972482;28;20471;-73
2023/03/25 11:06:38;;;;;;;7.07;1.87;;;11.60;99.90;;;;;;4959634;28;20483;-72
2023/03/25 11:09:11;;;;;;;6.63;2.43;;;11.60;99.90;;;;;;4994297;28;20959;-74
2023/03/25 11:11:37;;;;;;;5.97;2.47;;;11.60;99.90;;;;;;4994565;28;20884;-73
2023/03/25 11:14:05;;;;;;;3.93;2.10;;;11.60;99.90;;;;;;4992598;28;20459;-73
2023/03/25 11:16:40;;;;;;;6.27;2.07;;;11.60;99.90;;;;;;4993954;28;20424;-74
2023/03/25 11:19:15;;;;;;;7.43;2.30;;;11.60;99.90;;;;;;4993104;28;20825;-74
2023/03/25 11:21:46;;;;;;;6.30;2.50;;;11.60;99.90;;;;;;4989782;28;20466;-73
2023/03/25 11:24:16;;;;;;;7.90;2.23;;;11.50;99.90;;;;;;4990163;28;20451;-76
2023/03/25 11:26:55;;;;;;;3.93;2.10;;;11.60;99.90;;;;;;4992573;28;20517;-76
2023/03/25 11:29:25;;;;;;;9.97;3.73;;;11.50;99.90;;;;;;4993211;28;20463;-74
2023/03/25 11:32:04;;;;;;;8.53;2.33;;;11.60;99.90;;;;;;4992819;28;20437;-74
2023/03/25 11:34:30;;;;;;;8.50;2.00;;;11.60;99.90;;;;;;5010000;28;20867;-70
2023/03/25 11:37:05;;;;;;;4.70;2.17;;;11.50;99.90;;;;;;4994598;28;20422;-72
2023/03/25 11:39:38;;;;;;;6.87;2.30;;;11.50;99.90;;;;;;5010058;28;20491;-71
2023/03/25 11:42:16;;;;;;;8.87;2.40;;;11.50;99.90;;;;;;4994454;28;20414;-72
2023/03/25 11:44:54;;;;;;;9.20;2.53;;;11.50;99.90;;;;;;4980070;28;20448;-74
2023/03/25 11:47:34;;;;;;;4.17;2.30;;;11.50;99.90;;;;;;4980467;28;20450;-74
2023/03/25 11:50:03;;;;;;;6.77;2.73;;;11.50;99.90;;;;;;4993086;28;20513;-74
2023/03/25 11:52:55;;;;;;;8.80;2.70;;;11.60;99.90;;;;;;5003257;28;20431;-74
2023/03/25 11:55:27;;;;;;;9.20;2.97;;;11.50;99.90;;;;;;4990075;28;20468;-74
2023/03/25 11:57:59;;;;;;;8.70;2.63;;;11.60;99.90;;;;;;4989891;28;20416;-73
2023/03/25 12:00:45;;;;;;;6.90;3.00;;;11.60;99.90;;;;;;4990060;28;20971;-74
2023/03/25 12:03:13;;;;;;;5.53;2.30;;;11.60;99.90;;;;;;4984017;28;20462;-74
2023/03/25 12:05:42;;;;;;;6.00;1.90;;;11.60;99.90;;;;;;4993227;28;20478;-74
2023/03/25 12:08:14;;;;;;;7.63;2.53;;;11.60;99.90;;;;;;4976895;28;20435;-74
2023/03/25 12:11:05;;;;;;;4.57;1.87;;;11.60;99.90;;;;;;4976999;28;20817;-74
2023/03/25 12:13:38;;;;;;;7.77;2.57;;;11.60;99.90;;;;;;4993229;28;20467;-74
2023/03/25 12:16:33;;;;;;;3.00;2.53;;;11.60;99.90;;;;;;4992794;28;20428;-74
2023/03/25 12:19:23;;;;;;;6.37;1.80;;;11.60;99.90;;;;;;5009441;28;20408;-74
2023/03/25 12:21:57;;;;;;;8.67;1.90;;;11.60;99.90;;;;;;4993169;28;20425;-74
2023/03/25 12:24:38;;;;;;;8.17;2.10;;;11.60;99.90;;;;;;4993064;28;20437;-74
2023/03/25 12:27:07;;;;;;;5.93;2.20;;;11.60;99.90;;;;;;4992488;28;20461;-74
2023/03/25 12:30:00;;;;;;;7.03;2.10;;;11.70;99.90;;;;;;4991920;28;20474;-74
2023/03/25 12:33:06;;;;;;;7.50;2.20;;;11.70;99.90;;;;;;4980154;28;20838;-74
2023/03/25 12:35:35;;;;;;;7.00;2.40;;;11.70;99.90;;;;;;4992936;28;20848;-74
2023/03/25 12:38:11;;;;;;;7.50;2.27;;;11.70;99.90;;;;;;4985687;28;20954;-74
2023/03/25 12:41:09;;;;;;;6.83;2.00;;;11.70;99.90;;;;;;4992820;28;20809;-74
2023/03/25 12:43:58;;;;;;;6.07;1.70;;;11.70;99.90;;;;;;4972970;28;20503;-74
2023/03/25 12:46:45;;;;;;;11.00;2.37;;;11.80;99.90;;;;;;4973146;28;20450;-74
2023/03/25 12:49:33;;;;;;;9.40;2.53;;;11.80;99.90;;;;;;5006430;28;20455;-74
2023/03/25 12:52:20;;;;;;;8.13;2.73;;;11.80;99.90;;;;;;4993790;28;20417;-74
2023/03/25 12:55:04;;;;;;;9.80;2.90;;;11.80;99.90;;;;;;4992359;28;20425;-74
2023/03/25 12:57:51;;;;;;;7.20;3.17;;;11.80;99.90;;;;;;4989209;28;20423;-74
2023/03/25 13:00:40;;;;;;;10.97;3.60;;;11.90;99.90;;;;;;4980396;28;20822;-74
2023/03/25 13:03:26;;;;;;;7.90;2.90;;;11.90;99.90;;;;;;4992567;28;20433;-74
2023/03/25 13:06:07;;;;;;;11.07;2.93;;;11.90;99.90;;;;;;4993501;28;20459;-74
2023/03/25 13:09:04;;;;;;;7.43;3.00;;;11.90;99.90;;;;;;4973090;28;20400;-74
2023/03/25 13:11:44;;;;;;;9.10;3.20;;;12.00;99.90;;;;;;4975981;28;20806;-74
2023/03/25 13:14:50;;;;;;;8.43;2.80;;;12.00;99.90;;;;;;4993502;28;20876;-74
2023/03/25 13:17:29;;;;;;;9.83;2.90;;;12.00;99.90;;;;;;4975082;28;20489;-74
2023/03/25 13:19:59;;;;;;;6.03;2.30;;;12.00;99.90;;;;;;4973959;28;20499;-74